Time;durP1;ratioP1;P1;durP2;ratioP2;P2;SDS_P1;SDS_P2;PMS_P1;PMS_P2;Temp;Humidity;BMP_temperature;BMP_pressure;BME280_temperature;BME280_humidity;BME280_pressure;Samples;Min_cycle;Max_cycle;Signal;HPM_P1;HPM_P2
2022/10/01 00:01:52;;;;;;;15.07;11.77;;;;;;;9.47;100.00;100288.22;5017869;28;20034;-75
2022/10/01 00:04:18;;;;;;;15.07;11.70;;;;;;;9.46;100.00;100288.28;5013753;28;20463;-74
2022/10/01 00:06:43;;;;;;;14.80;11.60;;;;;;;9.48;100.00;100276.06;5014286;28;20504;-74
2022/10/01 00:09:08;;;;;;;13.70;11.25;;;;;;;9.46;100.00;100294.31;5014320;28;20053;-74
2022/10/01 00:11:33;;;;;;;14.88;10.80;;;;;;;9.48;100.00;100276.94;5012400;28;20030;-74
2022/10/01 00:14:00;;;;;;;14.23;11.90;;;;;;;9.49;100.00;100270.81;5011693;28;20545;-75
2022/10/01 00:16:27;;;;;;;16.85;11.55;;;;;;;9.50;100.00;100266.47;5012462;28;20065;-75
2022/10/01 00:18:53;;;;;;;16.85;11.88;;;;;;;9.46;100.00;100278.72;5012192;28;20029;-75
2022/10/01 00:21:30;;;;;;;16.25;11.98;;;;;;;9.45;100.00;100258.81;5011975;28;20037;-74
2022/10/01 00:23:58;;;;;;;17.17;11.43;;;;;;;9.46;100.00;100252.69;5013439;28;20022;-74
2022/10/01 00:26:28;;;;;;;13.82;11.20;;;;;;;9.48;100.00;100248.31;5015148;28;20036;-74
2022/10/01 00:28:56;;;;;;;17.85;12.52;;;;;;;9.45;100.00;100253.59;5011197;28;20068;-75
2022/10/01 00:31:22;;;;;;;16.98;11.68;;;;;;;9.45;100.00;100253.59;5012017;28;20108;-74
2022/10/01 00:33:47;;;;;;;17.15;12.38;;;;;;;9.44;100.00;100249.28;5018173;28;20033;-74
2022/10/01 00:36:13;;;;;;;17.63;12.80;;;;;;;9.45;100.00;100243.19;5007462;28;20030;-75
2022/10/01 00:38:39;;;;;;;17.05;11.75;;;;;;;9.45;100.00;100219.78;5001154;28;20026;-74
2022/10/01 00:41:06;;;;;;;17.42;12.38;;;;;;;9.45;100.00;100211.97;5011413;28;20026;-75
2022/10/01 00:43:34;;;;;;;16.05;12.73;;;;;;;9.43;100.00;100205.94;5010176;28;20026;-74
2022/10/01 00:46:13;;;;;;;16.30;12.30;;;;;;;9.45;100.00;100222.38;5010579;28;20049;-75
2022/10/01 00:48:51;;;;;;;15.00;11.95;;;;;;;9.47;100.00;100220.56;5010446;28;20021;-75
2022/10/01 00:51:17;;;;;;;14.48;12.07;;;;;;;9.49;100.00;100228.34;5012705;28;20030;-75
2022/10/01 00:53:44;;;;;;;20.02;12.35;;;;;;;9.50;100.00;100250.84;5012061;28;20505;-74
2022/10/01 00:56:09;;;;;;;16.13;11.80;;;;;;;9.52;100.00;100265.53;5002842;28;20461;-75
2022/10/01 00:58:35;;;;;;;16.25;11.60;;;;;;;9.47;100.00;100236.19;5011456;28;20117;-75
2022/10/01 01:01:00;;;;;;;17.35;12.45;;;;;;;9.52;100.00;100239.50;5012402;28;20034;-75
2022/10/01 01:03:26;;;;;;;15.95;10.80;;;;;;;9.53;100.00;100237.75;5016663;28;20034;-76
2022/10/01 01:05:51;;;;;;;14.23;11.18;;;;;;;9.51;100.00;100222.16;5020554;28;20100;-77
2022/10/01 01:08:17;;;;;;;17.35;11.43;;;;;;;9.56;100.00;100235.91;5011964;28;20460;-78
2022/10/01 01:10:54;;;;;;;14.93;10.45;;;;;;;9.51;100.00;100250.78;5003742;28;20069;-79
2022/10/01 01:13:25;;;;;;;16.98;11.18;;;;;;;9.55;100.00;100226.41;5007716;28;20058;-77
2022/10/01 01:16:11;;;;;;;16.77;10.30;;;;;;;9.54;100.00;100183.06;5010929;28;20041;-79
2022/10/01 01:18:58;;;;;;;13.43;11.38;;;;;;;9.60;100.00;100190.69;5011810;28;20022;-79
2022/10/01 01:21:39;;;;;;;14.35;10.77;;;;;;;9.54;100.00;100190.84;5011016;28;20025;-78
2022/10/01 01:24:37;;;;;;;15.23;10.35;;;;;;;9.50;100.00;100168.44;5008066;28;20036;-79
2022/10/01 01:27:30;;;;;;;16.23;9.38;;;;;;;9.57;100.00;100128.31;5011433;28;20030;-79
2022/10/01 01:30:00;;;;;;;13.68;9.55;;;;;;;9.58;100.00;100119.63;5014475;28;20504;-78
2022/10/01 01:32:47;;;;;;;11.23;8.90;;;;;;;9.55;100.00;100104.09;5010880;28;20029;-77
2022/10/01 01:35:31;;;;;;;11.27;9.65;;;;;;;9.51;100.00;100092.06;5011118;28;20116;-78
2022/10/01 01:38:02;;;;;;;12.55;8.77;;;;;;;9.54;100.00;100099.78;5006948;28;20037;-79
2022/10/01 01:40:30;;;;;;;16.58;9.95;;;;;;;9.53;100.00;100051.25;5010373;28;20040;-79
2022/10/01 01:42:57;;;;;;;11.55;9.60;;;;;;;9.52;100.00;100053.91;5011338;28;20112;-79
2022/10/01 01:45:27;;;;;;;13.40;9.20;;;;;;;9.51;100.00;100117.25;5001878;28;20073;-79
2022/10/01 01:47:56;;;;;;;12.23;9.38;;;;;;;9.53;100.00;100120.66;5002180;28;20076;-80
2022/10/01 01:50:24;;;;;;;13.43;9.48;;;;;;;9.51;100.00;100102.47;5011252;28;20030;-79
2022/10/01 01:52:51;;;;;;;10.90;9.45;;;;;;;9.55;100.00;100122.31;5009984;28;20054;-79
2022/10/01 01:55:18;;;;;;;14.20;8.38;;;;;;;9.54;100.00;100109.34;5011517;28;20030;-78
2022/10/01 01:57:43;;;;;;;11.90;8.57;;;;;;;9.56;100.00;100111.00;5011857;28;20026;-78
2022/10/01 02:00:10;;;;;;;13.30;8.73;;;;;;;9.56;100.00;100125.78;5009554;28;20076;-78
2022/10/01 02:02:39;;;;;;;11.60;8.52;;;;;;;9.55;100.00;100129.28;5012829;28;20052;-79
2022/10/01 02:05:10;;;;;;;10.23;7.82;;;;;;;9.53;100.00;100131.91;5014910;28;20042;-79
2022/10/01 02:08:12;;;;;;;10.07;8.18;;;;;;;9.54;100.00;100118.00;5009741;28;20466;-79
2022/10/01 02:11:14;;;;;;;12.52;7.90;;;;;;;9.53;100.00;100105.06;5002368;28;20125;-81
2022/10/01 02:13:49;;;;;;;10.07;7.88;;;;;;;9.57;100.00;100112.69;5009085;28;20367;-80
2022/10/01 02:16:26;;;;;;;9.48;7.15;;;;;;;9.57;100.00;100120.50;5011047;28;20062;-79
2022/10/01 02:19:16;;;;;;;9.20;6.93;;;;;;;9.58;100.00;100119.63;5011125;28;20097;-79
2022/10/01 02:22:10;;;;;;;10.93;6.50;;;;;;;9.54;100.00;100105.00;5010456;28;20433;-79
2022/10/01 02:24:38;;;;;;;9.80;6.50;;;;;;;9.59;100.00;100112.66;5010141;28;20620;-80
2022/10/01 02:27:10;;;;;;;9.75;6.78;;;;;;;9.60;100.00;100110.00;4995900;28;20036;-81
2022/10/01 02:29:38;;;;;;;9.45;6.53;;;;;;;9.60;100.00;100097.00;5014525;28;20481;-81
2022/10/01 02:32:04;;;;;;;9.82;6.25;;;;;;;9.63;100.00;100093.44;5011573;28;20080;-81
2022/10/01 02:34:30;;;;;;;6.78;5.20;;;;;;;9.64;100.00;100096.91;5010537;28;20030;-79
2022/10/01 02:36:59;;;;;;;7.95;5.75;;;;;;;9.65;100.00;100083.84;5011756;28;20029;-79
2022/10/01 02:39:28;;;;;;;8.13;5.75;;;;;;;9.66;100.00;100079.50;5010191;28;20029;-79
2022/10/01 02:41:55;;;;;;;6.88;5.30;;;;;;;9.66;100.00;100074.28;5010321;28;20034;-79
2022/10/01 02:44:28;;;;;;;6.15;4.93;;;;;;;9.66;100.00;100079.50;5013689;28;20044;-78
2022/10/01 02:47:06;;;;;;;5.80;5.20;;;;;;;9.66;100.00;100069.94;5011388;28;20049;-78
2022/10/01 02:49:32;;;;;;;6.38;5.60;;;;;;;9.71;100.00;100067.16;4997569;28;20045;-78
2022/10/01 02:52:12;;;;;;;6.65;5.43;;;;;;;9.71;100.00;100085.38;5004111;28;20382;-78
2022/10/01 02:54:46;;;;;;;5.93;4.85;;;;;;;9.69;100.00;100082.84;5010079;28;20044;-77
2022/10/01 02:57:23;;;;;;;9.10;5.57;;;;;;;9.72;100.00;100076.69;5013796;28;20037;-78
2022/10/01 02:59:59;;;;;;;7.22;4.95;;;;;;;9.72;100.00;100079.31;5014110;28;20490;-77
2022/10/01 03:02:26;;;;;;;7.45;4.93;;;;;;;9.77;100.00;100080.00;5015457;28;20473;-76
2022/10/01 03:04:53;;;;;;;8.10;4.70;;;;;;;9.76;100.00;100075.69;5015998;28;20033;-76
2022/10/01 03:07:18;;;;;;;6.75;5.13;;;;;;;9.76;100.00;100075.69;5016205;28;20034;-77
2022/10/01 03:09:43;;;;;;;5.68;4.57;;;;;;;9.77;100.00;100074.78;5012046;28;20025;-77
2022/10/01 03:12:12;;;;;;;5.38;4.45;;;;;;;9.78;100.00;100071.31;5013968;28;20486;-77
2022/10/01 03:14:40;;;;;;;5.63;4.57;;;;;;;9.75;100.00;100069.66;5012178;28;20041;-76
2022/10/01 03:17:06;;;;;;;5.53;4.63;;;;;;;9.78;100.00;100068.69;5014159;28;20021;-76
2022/10/01 03:19:31;;;;;;;6.90;4.10;;;;;;;9.81;100.00;100073.81;5013256;28;20014;-76
2022/10/01 03:21:56;;;;;;;7.63;4.70;;;;;;;9.78;100.00;100060.88;5013386;28;20046;-76
2022/10/01 03:24:22;;;;;;;6.32;4.32;;;;;;;9.81;100.00;100058.19;5012184;28;20037;-77
2022/10/01 03:26:47;;;;;;;5.35;4.05;;;;;;;9.84;100.00;100058.06;5013916;28;20033;-76
2022/10/01 03:29:13;;;;;;;6.03;4.60;;;;;;;9.85;100.00;100054.56;5013853;28;20026;-77
2022/10/01 03:31:39;;;;;;;6.22;4.32;;;;;;;9.86;100.00;100056.28;5011878;28;20030;-77
2022/10/01 03:34:04;;;;;;;7.18;4.00;;;;;;;9.88;100.00;100059.69;5002141;28;20040;-77
2022/10/01 03:36:30;;;;;;;5.03;4.20;;;;;;;9.88;100.00;100066.66;5011053;28;20052;-77
2022/10/01 03:38:55;;;;;;;8.27;3.72;;;;;;;9.89;100.00;100055.31;5013553;28;20480;-77
2022/10/01 03:41:21;;;;;;;4.30;3.50;;;;;;;9.92;100.00;100060.44;5013454;28;20040;-77
2022/10/01 03:43:46;;;;;;;3.97;3.53;;;;;;;9.93;100.00;100051.72;5012693;28;20037;-75
2022/10/01 03:46:12;;;;;;;4.80;3.15;;;;;;;9.90;100.00;100050.06;5012795;28;20057;-77
2022/10/01 03:48:37;;;;;;;5.47;3.20;;;;;;;9.95;100.00;100066.38;5012882;28;20501;-76
2022/10/01 03:51:02;;;;;;;5.15;3.10;;;;;;;9.94;100.00;100062.09;5012471;28;20034;-76
2022/10/01 03:53:30;;;;;;;4.53;2.92;;;;;;;9.94;100.00;100064.69;5012591;28;20049;-77
2022/10/01 03:55:56;;;;;;;4.80;2.80;;;;;;;9.98;100.00;100071.50;5013508;28;20058;-77
2022/10/01 03:58:22;;;;;;;5.32;2.85;;;;;;;10.01;100.00;100071.41;5012655;28;20057;-76
2022/10/01 04:00:48;;;;;;;4.05;2.70;;;;;;;10.03;100.00;100069.56;5012912;28;20482;-76
2022/10/01 04:03:14;;;;;;;3.25;2.40;;;;;;;10.05;100.00;100070.38;5016358;28;20022;-76
2022/10/01 04:05:42;;;;;;;4.25;2.40;;;;;;;10.08;100.00;100072.03;5011394;28;20099;-76
2022/10/01 04:08:07;;;;;;;5.35;2.15;;;;;;;10.08;100.00;100067.69;5013629;28;20113;-76
2022/10/01 04:10:33;;;;;;;2.75;2.45;;;;;;;10.14;100.00;100068.38;5012379;28;20111;-77
2022/10/01 04:12:58;;;;;;;3.50;2.30;;;;;;;10.13;100.00;100075.31;5004849;28;20030;-76
2022/10/01 04:15:24;;;;;;;5.13;2.33;;;;;;;10.14;100.00;100082.25;5011888;28;20037;-76
2022/10/01 04:17:50;;;;;;;3.63;2.20;;;;;;;10.16;100.00;100083.03;5013661;28;20111;-76
2022/10/01 04:20:15;;;;;;;4.78;2.60;;;;;;;10.15;100.00;100073.53;5012385;28;20048;-76
2022/10/01 04:22:41;;;;;;;4.68;2.35;;;;;;;10.20;100.00;100087.25;5011316;28;20034;-77
2022/10/01 04:25:09;;;;;;;3.95;2.33;;;;;;;10.18;100.00;100090.81;5012130;28;20034;-76
2022/10/01 04:27:41;;;;;;;2.70;2.30;;;;;;;10.20;100.00;100081.16;5011369;28;20026;-76
2022/10/01 04:30:08;;;;;;;5.10;3.10;;;;;;;10.24;100.00;100094.06;5012907;28;20113;-77
2022/10/01 04:32:34;;;;;;;2.90;2.38;;;;;;;10.26;100.00;100092.25;5014990;28;20034;-76
2022/10/01 04:35:02;;;;;;;4.90;2.05;;;;;;;10.25;100.00;100087.94;5013117;28;20355;-76
2022/10/01 04:37:27;;;;;;;4.30;2.40;;;;;;;10.28;100.00;100094.84;5014917;28;20034;-76
2022/10/01 04:39:53;;;;;;;4.70;2.50;;;;;;;10.31;100.00;100092.13;5010959;28;20049;-76
2022/10/01 04:42:19;;;;;;;3.58;2.38;;;;;;;10.33;100.00;100100.72;5013729;28;20116;-76
2022/10/01 04:44:44;;;;;;;3.67;2.80;;;;;;;10.32;100.00;100097.28;5012413;28;20034;-76
2022/10/01 04:47:09;;;;;;;3.03;2.50;;;;;;;10.32;100.00;100097.28;5011174;28;20406;-76
2022/10/01 04:49:35;;;;;;;4.20;2.72;;;;;;;10.38;100.00;100105.78;5014991;28;20029;-76
2022/10/01 04:52:01;;;;;;;6.57;3.05;;;;;;;10.39;100.00;100103.13;5013624;28;20014;-76
2022/10/01 04:54:26;;;;;;;3.80;3.13;;;;;;;10.42;100.00;100099.56;5008426;28;20044;-76
2022/10/01 04:56:52;;;;;;;5.53;3.13;;;;;;;10.42;100.00;100108.22;5011618;28;20462;-76
2022/10/01 04:59:18;;;;;;;4.57;3.60;;;;;;;10.45;100.00;100108.13;5011188;28;20113;-76
2022/10/01 05:01:44;;;;;;;6.80;3.25;;;;;;;10.46;100.00;100098.53;5011307;28;20060;-76
2022/10/01 05:04:09;;;;;;;4.35;3.60;;;;;;;10.47;100.00;100111.53;5011226;28;20473;-76
2022/10/01 05:06:34;;;;;;;4.93;3.92;;;;;;;10.51;100.00;100099.25;5011336;28;20037;-76
2022/10/01 05:09:00;;;;;;;6.75;4.15;;;;;;;10.53;100.00;100115.69;5012681;28;20080;-76
2022/10/01 05:11:25;;;;;;;8.75;4.13;;;;;;;10.51;100.00;100120.94;5023982;28;20458;-76
2022/10/01 05:13:50;;;;;;;7.22;4.32;;;;;;;10.57;100.00;100124.25;5014735;28;20033;-76
2022/10/01 05:16:16;;;;;;;5.72;4.60;;;;;;;10.57;100.00;100126.88;5011499;28;20029;-76
2022/10/01 05:18:42;;;;;;;8.40;5.05;;;;;;;10.58;100.00;100124.19;5013137;28;20034;-76
2022/10/01 05:21:10;;;;;;;8.43;4.93;;;;;;;10.59;100.00;100131.09;5012943;28;20033;-76
2022/10/01 05:23:36;;;;;;;6.22;5.00;;;;;;;10.62;100.00;100127.53;5010826;28;20080;-77
2022/10/01 05:26:04;;;;;;;13.10;5.68;;;;;;;10.62;100.00;100136.22;5012007;28;20076;-76
2022/10/01 05:28:30;;;;;;;8.98;5.93;;;;;;;10.62;100.00;100144.03;5011871;28;20018;-76
2022/10/01 05:30:59;;;;;;;10.23;5.70;;;;;;;10.61;100.00;100144.09;5010430;28;20433;-77
2022/10/01 05:33:25;;;;;;;11.45;6.05;;;;;;;10.63;100.00;100152.72;5009795;28;20116;-74
2022/10/01 05:35:50;;;;;;;10.30;6.85;;;;;;;10.68;100.00;100161.22;5012210;28;20041;-74
2022/10/01 05:38:16;;;;;;;9.25;6.22;;;;;;;10.68;100.00;100169.88;5010714;28;20033;-77
2022/10/01 05:40:45;;;;;;;9.20;6.25;;;;;;;10.70;100.00;100169.84;5015142;28;20068;-76
2022/10/01 05:43:11;;;;;;;14.80;6.65;;;;;;;10.69;100.00;100157.69;5011248;28;20064;-76
2022/10/01 05:45:37;;;;;;;12.52;7.53;;;;;;;10.72;100.00;100175.84;5010510;28;20053;-76
2022/10/01 05:48:05;;;;;;;16.67;7.20;;;;;;;10.70;100.00;100159.41;5012214;28;20009;-76
2022/10/01 05:50:33;;;;;;;10.27;7.78;;;;;;;10.74;100.00;100171.44;5010461;28;20037;-77
2022/10/01 05:53:00;;;;;;;12.73;7.53;;;;;;;10.67;100.00;100165.59;5008547;28;20378;-76
2022/10/01 05:55:30;;;;;;;14.32;7.95;;;;;;;10.75;100.00;100178.34;5010446;28;20034;-76
2022/10/01 05:57:58;;;;;;;14.32;8.68;;;;;;;10.76;100.00;100173.09;5010927;28;20382;-76
2022/10/01 06:00:26;;;;;;;15.85;8.65;;;;;;;10.80;100.00;100184.25;5010348;28;20034;-76
2022/10/01 06:02:51;;;;;;;12.57;9.40;;;;;;;10.81;100.00;100179.91;5014525;28;20389;-76
2022/10/01 06:05:17;;;;;;;13.68;9.32;;;;;;;10.75;100.00;100173.97;5009521;28;20030;-76
2022/10/01 06:07:43;;;;;;;14.05;8.68;;;;;;;10.64;100.00;100164.84;5006888;28;20104;-77
2022/10/01 06:10:08;;;;;;;13.00;9.88;;;;;;;10.66;100.00;100174.31;5010978;28;20073;-76
2022/10/01 06:12:33;;;;;;;16.27;9.23;;;;;;;10.67;100.00;100182.97;5009707;28;20043;-76
2022/10/01 06:14:59;;;;;;;16.38;9.30;;;;;;;10.67;100.00;100180.38;5010208;28;20076;-76
2022/10/01 06:17:24;;;;;;;19.67;10.18;;;;;;;10.61;100.00;100188.41;5010104;28;20370;-76
2022/10/01 06:19:50;;;;;;;17.58;9.93;;;;;;;10.55;100.00;100185.09;5010802;28;20053;-76
2022/10/01 06:22:16;;;;;;;19.45;10.27;;;;;;;10.51;100.00;100195.69;5012321;28;20371;-76
2022/10/01 06:24:41;;;;;;;32.70;16.17;;;;;;;10.47;100.00;100192.31;5005123;28;20031;-76
2022/10/01 06:27:07;;;;;;;25.27;12.68;;;;;;;10.53;100.00;100194.72;5004826;28;20090;-76
2022/10/01 06:29:32;;;;;;;21.38;11.60;;;;;;;10.58;100.00;100198.94;5013847;28;20109;-76
2022/10/01 06:31:57;;;;;;;22.45;12.48;;;;;;;10.61;100.00;100193.63;5015843;28;20045;-77
2022/10/01 06:34:22;;;;;;;27.83;12.82;;;;;;;10.61;100.00;100197.06;5014601;28;20096;-76
2022/10/01 06:36:48;;;;;;;25.17;13.38;;;;;;;10.65;100.00;100197.81;5014963;28;20036;-76
2022/10/01 06:39:13;;;;;;;30.83;14.70;;;;;;;10.69;100.00;100199.41;5015004;28;20038;-76
2022/10/01 06:41:39;;;;;;;26.15;14.13;;;;;;;10.73;100.00;100203.63;5013608;28;20022;-76
2022/10/01 06:44:05;;;;;;;31.15;14.65;;;;;;;10.79;100.00;100200.81;5013315;28;20050;-76
2022/10/01 06:46:31;;;;;;;32.10;15.68;;;;;;;10.90;100.00;100213.47;5011845;28;20081;-76
2022/10/01 06:48:56;;;;;;;31.70;16.58;;;;;;;10.99;100.00;100210.56;5016317;28;20113;-76
2022/10/01 06:52:47;;;;;;;35.17;17.65;;;;;;;11.11;100.00;100212.69;5016522;28;20489;-76
2022/10/01 06:54:07;;;;;;;33.60;18.58;;;;;;;11.17;100.00;100217.72;5012517;28;20120;-76
2022/10/01 06:56:34;;;;;;;35.88;17.33;;;;;;;11.29;100.00;100226.88;5012288;28;20430;-76
2022/10/01 06:58:59;;;;;;;31.20;17.30;;;;;;;11.24;100.00;100213.97;5017210;28;20108;-76
2022/10/01 07:01:25;;;;;;;44.72;17.58;;;;;;;11.28;100.00;100216.47;5014869;28;20105;-76
2022/10/01 07:03:51;;;;;;;34.03;17.23;;;;;;;11.36;100.00;100225.72;5015934;28;20025;-76
2022/10/01 07:06:17;;;;;;;35.55;16.83;;;;;;;11.35;100.00;100220.59;5018617;28;20052;-77
2022/10/01 07:08:42;;;;;;;33.53;17.13;;;;;;;11.42;100.00;100222.91;5012831;28;20030;-77
2022/10/01 07:11:07;;;;;;;38.95;17.98;;;;;;;11.45;100.00;100238.44;5015501;28;20025;-76
2022/10/01 07:13:32;;;;;;;40.60;18.38;;;;;;;11.52;100.00;100238.22;5017184;28;20029;-77
2022/10/01 07:15:58;;;;;;;38.85;17.92;;;;;;;11.55;100.00;100230.28;5013746;28;20022;-76
2022/10/01 07:18:23;;;;;;;40.25;18.85;;;;;;;11.66;100.00;100230.72;5014197;28;20021;-77
2022/10/01 07:20:48;;;;;;;42.55;19.08;;;;;;;11.80;100.00;100236.25;5014626;28;20497;-76
2022/10/01 07:23:15;;;;;;;42.58;19.65;;;;;;;11.92;100.00;100235.84;5014068;28;20034;-76
2022/10/01 07:25:41;;;;;;;44.38;19.92;;;;;;;12.04;100.00;100236.28;4999982;28;20026;-76
2022/10/01 07:28:15;;;;;;;47.17;20.58;;;;;;;12.08;100.00;100235.25;5008381;28;20081;-76
2022/10/01 07:30:42;;;;;;;42.92;19.67;;;;;;;12.11;100.00;100246.44;5011570;28;20030;-77
2022/10/01 07:33:07;;;;;;;46.47;19.58;;;;;;;12.05;100.00;100264.09;5017649;28;20147;-77
2022/10/01 07:35:36;;;;;;;48.03;19.27;;;;;;;12.03;100.00;100260.69;5013107;28;20117;-78
2022/10/01 07:38:06;;;;;;;42.88;18.23;;;;;;;11.91;100.00;100260.25;5012746;28;20362;-80
2022/10/01 07:40:31;;;;;;;43.53;19.17;;;;;;;11.97;100.00;100272.25;5012399;28;20041;-80
2022/10/01 07:42:57;;;;;;;46.78;18.52;;;;;;;11.96;100.00;100275.75;5013230;28;20445;-80
2022/10/01 07:45:24;;;;;;;45.70;18.25;;;;;;;12.01;100.00;100279.03;5012249;28;20487;-81
2022/10/01 07:47:57;;;;;;;46.38;17.67;;;;;;;12.07;100.00;100288.41;5012469;28;20367;-81
2022/10/01 07:50:23;;;;;;;40.03;19.48;;;;;;;12.15;100.00;100288.97;5012426;28;20026;-81
2022/10/01 07:52:53;;;;;;;43.83;18.88;;;;;;;12.17;100.00;100295.00;5013202;28;20032;-81
2022/10/01 07:55:20;;;;;;;40.97;18.52;;;;;;;12.22;100.00;100294.78;5013827;28;20036;-80
2022/10/01 07:57:50;;;;;;;62.40;19.88;;;;;;;12.21;100.00;100308.78;5013233;28;20030;-79
2022/10/01 08:00:16;;;;;;;47.85;19.05;;;;;;;12.21;100.00;100307.03;5003904;28;20014;-78
2022/10/01 08:02:46;;;;;;;65.10;20.00;;;;;;;12.25;100.00;100312.97;5010922;28;20038;-77
2022/10/01 08:05:17;;;;;;;55.70;20.35;;;;;;;12.25;100.00;100305.97;5007326;28;20030;-79
2022/10/01 08:07:43;;;;;;;49.20;20.00;;;;;;;12.34;100.00;100313.47;5005099;28;20022;-77
2022/10/01 08:10:08;;;;;;;47.97;19.33;;;;;;;12.40;100.00;100325.47;5013935;28;20022;-78
2022/10/01 08:12:33;;;;;;;45.25;19.10;;;;;;;12.50;100.00;100321.56;5012306;28;20101;-77
2022/10/01 08:15:01;;;;;;;50.28;19.15;;;;;;;12.59;100.00;100325.59;5013039;28;20038;-78
2022/10/01 08:17:26;;;;;;;40.83;18.60;;;;;;;12.67;100.00;100333.13;5011605;28;20026;-77
2022/10/01 08:19:51;;;;;;;43.60;19.25;;;;;;;12.73;100.00;100319.78;5012735;28;20351;-78
2022/10/01 08:22:16;;;;;;;41.92;19.05;;;;;;;12.79;100.00;100330.84;4999781;28;20034;-77
2022/10/01 08:24:42;;;;;;;40.25;18.05;;;;;;;12.78;100.00;100339.59;5013060;28;20440;-77
2022/10/01 08:27:07;;;;;;;39.92;16.67;;;;;;;12.82;100.00;100345.59;5012785;28;20029;-77
2022/10/01 08:29:33;;;;;;;42.55;17.90;;;;;;;12.90;100.00;100335.63;5012757;28;20465;-77
2022/10/01 08:31:58;;;;;;;30.80;16.42;;;;;;;12.91;100.00;100346.94;5001405;28;20022;-78
2022/10/01 08:34:23;;;;;;;25.77;14.70;;;;;;;12.83;100.00;100350.75;5012708;28;20032;-76
2022/10/01 08:36:50;;;;;;;26.92;14.38;;;;;;;12.85;100.00;100353.28;5011434;28;20026;-77
2022/10/01 08:39:16;;;;;;;26.23;13.02;;;;;;;12.88;100.00;100361.88;5012224;28;20105;-77
2022/10/01 08:41:53;;;;;;;23.15;12.00;;;;;;;12.87;100.00;100360.16;5012120;28;20541;-77
2022/10/01 08:44:26;;;;;;;24.13;11.98;;;;;;;12.87;100.00;100356.69;5013829;28;20101;-77
2022/10/01 08:46:59;;;;;;;18.98;10.85;;;;;;;12.81;100.00;100360.41;5011075;28;20049;-76
2022/10/01 08:49:37;;;;;;;23.52;10.25;;;;;;;13.07;100.00;100353.25;5012743;28;20041;-77
2022/10/01 08:52:20;;;;;;;20.00;9.80;;;;;;;13.23;100.00;100363.94;5012788;28;20024;-77
2022/10/01 08:54:51;;;;;;;21.58;9.70;;;;;;;13.10;100.00;100359.22;5010008;28;20033;-77
2022/10/01 08:57:22;;;;;;;23.10;8.50;;;;;;;13.15;100.00;100364.28;5011724;28;20080;-76
2022/10/01 08:59:51;;;;;;;14.40;8.30;;;;;;;13.06;100.00;100365.50;5012831;28;20120;-76
2022/10/01 09:02:34;;;;;;;17.52;9.00;;;;;;;13.07;100.00;100367.19;5012219;28;20046;-76
2022/10/01 09:05:19;;;;;;;19.50;8.07;;;;;;;13.15;100.00;100371.28;5012581;28;20474;-77
2022/10/01 09:08:44;;;;;;;21.73;7.95;;;;;;;13.27;100.00;100374.25;5010372;28;20115;-76
2022/10/01 09:11:22;;;;;;;18.73;8.00;;;;;;;13.39;100.00;100385.97;4902939;29;20032;-76
2022/10/01 09:14:10;;;;;;;21.05;8.18;;;;;;;13.44;100.00;100375.28;5008640;28;20107;-76
2022/10/01 09:16:57;;;;;;;21.15;8.35;;;;;;;13.54;100.00;100387.09;5011623;28;20040;-77
2022/10/01 09:19:53;;;;;;;19.90;8.57;;;;;;;13.67;100.00;100395.25;5009674;28;20034;-77
2022/10/01 09:22:27;;;;;;;22.00;8.75;;;;;;;13.67;100.00;100396.13;5009474;28;20478;-77
2022/10/01 09:25:13;;;;;;;24.13;9.15;;;;;;;13.64;100.00;100400.66;5010927;28;20026;-77
2022/10/01 09:27:39;;;;;;;20.02;8.45;;;;;;;13.69;100.00;100399.53;5009640;28;20091;-77
2022/10/01 09:30:12;;;;;;;27.45;8.88;;;;;;;13.74;100.00;100397.56;5011814;28;20022;-76
2022/10/01 09:32:43;;;;;;;;;;;;;;;13.90;100.00;100408.22;5009953;28;20037;-77
2022/10/01 09:35:22;;;;;;;25.90;9.75;;;;;;;14.02;100.00;100409.44;5011117;28;19925;-77
2022/10/01 09:37:56;;;;;;;25.38;9.05;;;;;;;13.90;100.00;100407.38;4996265;28;20029;-76
2022/10/01 09:40:53;;;;;;;24.52;8.52;;;;;;;13.82;100.00;100411.16;5009075;28;20022;-76
2022/10/01 09:43:21;;;;;;;23.90;6.43;;;;;;;13.58;100.00;100418.31;5000693;28;20165;-76
2022/10/01 09:45:47;;;;;;;17.75;6.05;;;;;;;13.39;100.00;100406.06;5005000;28;20046;-76
2022/10/01 09:48:26;;;;;;;20.85;5.90;;;;;;;13.30;100.00;100416.00;5012077;28;20030;-75
2022/10/01 09:50:57;;;;;;;20.65;4.85;;;;;;;13.16;100.00;100423.53;5010491;28;20041;-76
2022/10/01 09:53:52;;;;;;;18.67;5.15;;;;;;;13.06;100.00;100411.75;5005805;28;20027;-76
2022/10/01 09:56:26;;;;;;;25.77;5.95;;;;;;;13.20;100.00;100424.28;4937782;28;20094;-76
2022/10/01 09:58:57;;;;;;;21.58;6.00;;;;;;;13.28;100.00;100415.22;5010629;28;20034;-76
2022/10/01 10:01:48;;;;;;;20.85;6.03;;;;;;;13.41;100.00;100420.81;5007795;28;20109;-75
2022/10/01 10:04:22;;;;;;;26.50;6.95;;;;;;;13.62;100.00;100424.28;5002120;28;20030;-76
2022/10/01 10:06:49;;;;;;;21.80;6.18;;;;;;;13.70;100.00;100437.03;5016083;28;20436;-75
2022/10/01 10:09:17;;;;;;;19.63;5.38;;;;;;;13.65;100.00;100425.94;5014440;28;20025;-76
2022/10/01 10:11:43;;;;;;;38.33;6.22;;;;;;;13.59;100.00;100432.25;5007287;28;20031;-78
2022/10/01 10:14:19;;;;;;;20.33;5.00;;;;;;;13.37;100.00;100449.78;5027013;28;20022;-80
2022/10/01 10:16:47;;;;;;;25.67;5.18;;;;;;;13.24;100.00;100445.06;5012915;28;20026;-80
2022/10/01 10:19:28;;;;;;;31.83;6.88;;;;;;;13.58;100.00;100446.28;5012709;28;20018;-82
2022/10/01 10:21:58;;;;;;;31.67;5.72;;;;;;;13.56;100.00;100453.34;5014916;28;20469;-81
2022/10/01 10:24:30;;;;;;;20.70;5.00;;;;;;;13.45;100.00;100469.50;5014076;28;20029;-81
2022/10/01 10:26:57;;;;;;;27.83;4.50;;;;;;;13.44;100.00;100473.06;5016636;28;20049;-79
2022/10/01 10:29:34;;;;;;;23.15;4.68;;;;;;;13.48;100.00;100468.53;5014868;28;20072;-78
2022/10/01 10:32:21;;;;;;;24.40;4.88;;;;;;;13.54;100.00;100471.75;5014662;28;20113;-79
2022/10/01 10:34:47;;;;;;;21.10;4.75;;;;;;;13.77;100.00;100473.41;5000738;28;20424;-78
2022/10/01 10:37:14;;;;;;;26.52;5.63;;;;;;;13.99;100.00;100480.31;5015400;28;20036;-77
2022/10/01 10:39:45;;;;;;;20.10;5.18;;;;;;;14.18;100.00;100473.38;5011163;28;20049;-77
2022/10/01 10:42:14;;;;;;;91.13;11.18;;;;;;;14.42;100.00;100479.31;5014050;28;20060;-78
2022/10/01 10:44:43;;;;;;;21.23;6.53;;;;;;;14.42;100.00;100488.91;5012796;28;20097;-77
2022/10/01 10:47:13;;;;;;;25.65;5.80;;;;;;;14.44;100.00;100494.97;5021333;28;20073;-76
2022/10/01 10:50:04;;;;;;;23.90;5.75;;;;;;;14.54;100.00;100496.28;5014898;28;20394;-77
2022/10/01 10:52:35;;;;;;;20.55;5.05;;;;;;;14.69;100.00;100500.00;5014089;28;20068;-79
2022/10/01 10:55:17;;;;;;;20.40;5.25;;;;;;;15.01;100.00;100502.88;5011260;28;20025;-78
2022/10/01 10:57:43;;;;;;;24.90;5.73;;;;;;;15.37;100.00;100509.00;5013287;28;20038;-77
2022/10/01 11:00:15;;;;;;;14.75;4.50;;;;;;;15.60;100.00;100497.38;5011719;28;20040;-77
2022/10/01 11:02:50;;;;;;;19.05;3.40;;;;;;;15.63;100.00;100507.72;5013693;28;20034;-76
2022/10/01 11:05:19;;;;;;;15.27;3.80;;;;;;;15.41;100.00;100509.69;5012319;28;20029;-75
2022/10/01 11:07:47;;;;;;;15.30;3.60;;;;;;;15.32;100.00;100525.91;5009525;28;20057;-77
2022/10/01 11:10:24;;;;;;;12.57;3.60;;;;;;;15.16;100.00;100529.25;5012320;28;20017;-76
2022/10/01 11:12:58;;;;;;;16.92;3.80;;;;;;;15.17;100.00;100525.72;5013699;28;20026;-76
2022/10/01 11:15:30;;;;;;;14.32;3.40;;;;;;;15.40;100.00;100529.00;5010850;28;20029;-78
2022/10/01 11:18:23;;;;;;;15.93;3.63;;;;;;;15.44;100.00;100530.56;5008395;28;20073;-78
2022/10/01 11:21:30;;;;;;;12.95;3.60;;;;;;;15.15;100.00;100545.94;5010742;28;20386;-77
2022/10/01 11:24:24;;;;;;;17.00;3.25;;;;;;;14.83;100.00;100550.06;5009170;28;20486;-77
2022/10/01 11:27:04;;;;;;;12.68;3.08;;;;;;;14.52;100.00;100558.47;4974025;28;20082;-76